KLM44Y EKCH-EHAM
Flight info
| Callsign | KLM44Y |
|---|---|
| Flight time | 1h 5m |
| Altitude | 28000 |
| Route | LANGO ALASA WANZA KUBAT T200 BLUFA |
| Aircraft | A21N/M-SDE2E3FGHIRWXY/LB1 |
Departure
| Time | 2026-05-06 13:38 |
|---|---|
| Airport | Copenhagen Kastrup Airport (EKCH) |
Arrival
| Time | 2026-05-06 14:43 |
|---|---|
| Airport | Amsterdam Airport Schiphol (EHAM) |
| Time | Latitude | Longitude | Altitude | Speed | Heading |
|---|---|---|---|---|---|
| 2026-05-06 12:59 | 55.62643 | 12.64572 | 23 ft | 0 kts | 281° |
| 2026-05-06 13:27 | 55.62639 | 12.64609 | 24 ft | 2 kts | 282° |
| 2026-05-06 13:27 | 55.62638 | 12.64648 | 25 ft | 4 kts | 240° |
| 2026-05-06 13:28 | 55.62656 | 12.64672 | 27 ft | 4 kts | 194° |
| 2026-05-06 13:28 | 55.62669 | 12.64678 | 24 ft | 1 kts | 192° |
| 2026-05-06 13:28 | 55.62670 | 12.64678 | 24 ft | 0 kts | 192° |
| 2026-05-06 13:31 | 55.62662 | 12.64675 | 23 ft | 3 kts | 192° |
| 2026-05-06 13:31 | 55.62629 | 12.64663 | 26 ft | 7 kts | 191° |
| 2026-05-06 13:31 | 55.62570 | 12.64654 | 22 ft | 10 kts | 180° |
| 2026-05-06 13:31 | 55.62482 | 12.64659 | 22 ft | 15 kts | 173° |
| 2026-05-06 13:32 | 55.62379 | 12.64676 | 22 ft | 14 kts | 178° |
| 2026-05-06 13:32 | 55.62297 | 12.64774 | 23 ft | 16 kts | 124° |
| 2026-05-06 13:32 | 55.62232 | 12.64951 | 23 ft | 18 kts | 123° |
| 2026-05-06 13:32 | 55.62179 | 12.65087 | 25 ft | 12 kts | 142° |
| 2026-05-06 13:33 | 55.62098 | 12.65053 | 23 ft | 14 kts | 213° |
| 2026-05-06 13:33 | 55.62010 | 12.64952 | 23 ft | 16 kts | 212° |
| 2026-05-06 13:33 | 55.61912 | 12.64841 | 22 ft | 18 kts | 213° |
| 2026-05-06 13:33 | 55.61804 | 12.64716 | 22 ft | 19 kts | 213° |
| 2026-05-06 13:34 | 55.61687 | 12.64580 | 22 ft | 21 kts | 213° |
| 2026-05-06 13:34 | 55.61560 | 12.64435 | 24 ft | 22 kts | 213° |
| 2026-05-06 13:34 | 55.61424 | 12.64279 | 22 ft | 24 kts | 213° |
| 2026-05-06 13:34 | 55.61279 | 12.64113 | 22 ft | 26 kts | 213° |
| 2026-05-06 13:35 | 55.61135 | 12.63946 | 22 ft | 24 kts | 213° |
| 2026-05-06 13:35 | 55.60991 | 12.63780 | 22 ft | 26 kts | 213° |
| 2026-05-06 13:35 | 55.60846 | 12.63614 | 22 ft | 25 kts | 213° |
| 2026-05-06 13:35 | 55.60695 | 12.63441 | 22 ft | 26 kts | 213° |
| 2026-05-06 13:36 | 55.60581 | 12.63283 | 22 ft | 20 kts | 221° |
| 2026-05-06 13:36 | 55.60484 | 12.63135 | 22 ft | 14 kts | 217° |
| 2026-05-06 13:36 | 55.60399 | 12.63167 | 23 ft | 15 kts | 130° |
| 2026-05-06 13:36 | 55.60341 | 12.63288 | 24 ft | 7 kts | 128° |
| 2026-05-06 13:37 | 55.60358 | 12.63380 | 25 ft | 10 kts | 43° |
| 2026-05-06 13:37 | 55.60520 | 12.63632 | 23 ft | 64 kts | 41° |
| 2026-05-06 13:37 | 55.61020 | 12.64403 | 21 ft | 124 kts | 43° |
| 2026-05-06 13:37 | 55.61798 | 12.65594 | 55 ft | 165 kts | 44° |
| 2026-05-06 13:38 | 55.62673 | 12.66917 | 570 ft | 166 kts | 46° |
| 2026-05-06 13:38 | 55.63513 | 12.68294 | 1293 ft | 163 kts | 46° |
| 2026-05-06 13:38 | 55.64395 | 12.69673 | 1810 ft | 177 kts | 45° |
| 2026-05-06 13:38 | 55.65396 | 12.71204 | 2164 ft | 207 kts | 44° |
| 2026-05-06 13:39 | 55.66497 | 12.73084 | 2575 ft | 231 kts | 58° |
| 2026-05-06 13:39 | 55.67082 | 12.75784 | 3210 ft | 242 kts | 85° |
| 2026-05-06 13:39 | 55.66856 | 12.78756 | 4008 ft | 249 kts | 112° |
| 2026-05-06 13:39 | 55.65854 | 12.81280 | 4873 ft | 258 kts | 137° |
| 2026-05-06 13:40 | 55.64266 | 12.82834 | 5711 ft | 268 kts | 162° |
| 2026-05-06 13:40 | 55.62380 | 12.83089 | 6533 ft | 279 kts | 182° |
| 2026-05-06 13:40 | 55.60486 | 12.82274 | 7368 ft | 285 kts | 204° |
| 2026-05-06 13:40 | 55.58920 | 12.80167 | 8321 ft | 285 kts | 230° |
| 2026-05-06 13:41 | 55.57800 | 12.77344 | 9357 ft | 284 kts | 238° |
| 2026-05-06 13:41 | 55.56745 | 12.74377 | 10244 ft | 290 kts | 238° |
| 2026-05-06 13:41 | 55.55621 | 12.71254 | 10610 ft | 313 kts | 238° |
| 2026-05-06 13:41 | 55.54397 | 12.67910 | 10921 ft | 335 kts | 238° |
| 2026-05-06 13:42 | 55.53087 | 12.64372 | 11319 ft | 351 kts | 237° |
| 2026-05-06 13:42 | 55.51731 | 12.60746 | 12051 ft | 356 kts | 237° |
| 2026-05-06 13:42 | 55.50361 | 12.57099 | 12865 ft | 358 kts | 237° |
| 2026-05-06 13:42 | 55.48976 | 12.53419 | 13628 ft | 362 kts | 237° |
| 2026-05-06 13:43 | 55.47579 | 12.49709 | 14312 ft | 365 kts | 237° |
| 2026-05-06 13:43 | 55.46174 | 12.45970 | 14998 ft | 367 kts | 237° |
| 2026-05-06 13:43 | 55.44753 | 12.42199 | 15613 ft | 371 kts | 237° |
| 2026-05-06 13:43 | 55.43313 | 12.38392 | 16214 ft | 375 kts | 237° |
| 2026-05-06 13:44 | 55.41858 | 12.34555 | 16826 ft | 379 kts | 237° |
| 2026-05-06 13:44 | 55.40388 | 12.30689 | 17435 ft | 381 kts | 237° |
| 2026-05-06 13:44 | 55.38906 | 12.26788 | 18005 ft | 385 kts | 237° |
| 2026-05-06 13:44 | 55.37407 | 12.22853 | 18518 ft | 388 kts | 236° |
| 2026-05-06 13:45 | 55.35900 | 12.18905 | 19044 ft | 390 kts | 236° |
| 2026-05-06 13:45 | 55.32855 | 12.10949 | 20072 ft | 394 kts | 236° |
| 2026-05-06 13:45 | 55.31320 | 12.06948 | 20567 ft | 396 kts | 236° |
| 2026-05-06 13:46 | 55.29778 | 12.02934 | 21081 ft | 398 kts | 236° |
| 2026-05-06 13:46 | 55.28224 | 11.98893 | 21579 ft | 400 kts | 236° |
| 2026-05-06 13:46 | 55.26663 | 11.94845 | 22061 ft | 402 kts | 236° |
| 2026-05-06 13:46 | 55.25093 | 11.90780 | 22521 ft | 404 kts | 236° |
| 2026-05-06 13:47 | 55.23515 | 11.86699 | 22951 ft | 406 kts | 236° |
| 2026-05-06 13:47 | 55.21927 | 11.82600 | 23351 ft | 407 kts | 236° |
| 2026-05-06 13:47 | 55.20330 | 11.78487 | 23678 ft | 409 kts | 236° |
| 2026-05-06 13:47 | 55.18751 | 11.74423 | 23993 ft | 410 kts | 236° |
| 2026-05-06 13:48 | 55.17145 | 11.70295 | 24291 ft | 412 kts | 236° |
| 2026-05-06 13:48 | 55.15529 | 11.66151 | 24574 ft | 413 kts | 236° |
| 2026-05-06 13:48 | 55.13905 | 11.61995 | 24843 ft | 415 kts | 235° |
| 2026-05-06 13:48 | 55.12273 | 11.57827 | 25141 ft | 416 kts | 235° |
| 2026-05-06 13:49 | 55.10632 | 11.53641 | 25411 ft | 418 kts | 235° |
| 2026-05-06 13:49 | 55.08987 | 11.49450 | 25678 ft | 419 kts | 235° |
| 2026-05-06 13:49 | 55.07332 | 11.45244 | 25936 ft | 421 kts | 235° |
| 2026-05-06 13:49 | 55.05671 | 11.41031 | 26199 ft | 422 kts | 235° |
| 2026-05-06 13:50 | 55.04003 | 11.36805 | 26455 ft | 424 kts | 235° |
| 2026-05-06 13:50 | 55.02329 | 11.32567 | 26697 ft | 425 kts | 234° |
| 2026-05-06 13:50 | 55.00646 | 11.28313 | 26930 ft | 427 kts | 234° |
| 2026-05-06 13:50 | 54.98958 | 11.24056 | 27125 ft | 428 kts | 234° |
| 2026-05-06 13:51 | 54.97260 | 11.19785 | 27353 ft | 429 kts | 234° |
| 2026-05-06 13:51 | 54.95559 | 11.15512 | 27625 ft | 429 kts | 234° |
| 2026-05-06 13:51 | 54.93859 | 11.11249 | 27874 ft | 429 kts | 234° |
| 2026-05-06 13:51 | 54.92163 | 11.06999 | 27933 ft | 427 kts | 234° |
| 2026-05-06 13:52 | 54.90487 | 11.02814 | 27924 ft | 427 kts | 234° |
| 2026-05-06 13:52 | 54.88788 | 10.98576 | 27906 ft | 428 kts | 234° |
| 2026-05-06 13:52 | 54.87088 | 10.94342 | 27895 ft | 428 kts | 234° |
| 2026-05-06 13:52 | 54.85386 | 10.90110 | 27904 ft | 427 kts | 234° |
| 2026-05-06 13:53 | 54.83685 | 10.85886 | 27892 ft | 426 kts | 234° |
| 2026-05-06 13:53 | 54.81988 | 10.81678 | 27888 ft | 426 kts | 234° |
| 2026-05-06 13:53 | 54.80287 | 10.77472 | 27889 ft | 426 kts | 234° |
| 2026-05-06 13:53 | 54.78585 | 10.73272 | 27874 ft | 427 kts | 233° |
| 2026-05-06 13:54 | 54.76874 | 10.69056 | 27879 ft | 428 kts | 233° |
| 2026-05-06 13:54 | 54.75159 | 10.64836 | 27882 ft | 429 kts | 233° |
| 2026-05-06 13:54 | 54.73998 | 10.61986 | 27884 ft | 429 kts | 233° |
| 2026-05-06 13:54 | 54.72280 | 10.57769 | 27885 ft | 429 kts | 233° |
| 2026-05-06 13:55 | 54.70564 | 10.53556 | 27885 ft | 429 kts | 233° |
| 2026-05-06 13:55 | 54.68844 | 10.49350 | 27882 ft | 429 kts | 233° |
| 2026-05-06 13:55 | 54.67121 | 10.45144 | 27882 ft | 429 kts | 233° |
| 2026-05-06 13:55 | 54.65399 | 10.40946 | 27882 ft | 429 kts | 233° |
| 2026-05-06 13:56 | 54.63677 | 10.36748 | 27883 ft | 429 kts | 233° |
| 2026-05-06 13:56 | 54.61951 | 10.32553 | 27882 ft | 429 kts | 233° |
| 2026-05-06 13:56 | 54.60222 | 10.28363 | 27890 ft | 428 kts | 233° |
| 2026-05-06 13:56 | 54.58492 | 10.24178 | 27894 ft | 428 kts | 233° |
| 2026-05-06 13:57 | 54.56761 | 10.19992 | 27890 ft | 430 kts | 233° |
| 2026-05-06 13:57 | 54.55019 | 10.15790 | 27896 ft | 432 kts | 233° |
| 2026-05-06 13:57 | 54.53273 | 10.11580 | 27897 ft | 432 kts | 233° |
| 2026-05-06 13:57 | 54.51550 | 10.07440 | 27899 ft | 432 kts | 233° |
| 2026-05-06 13:58 | 54.49802 | 10.03242 | 27900 ft | 432 kts | 233° |
| 2026-05-06 13:58 | 54.48050 | 9.99041 | 27900 ft | 432 kts | 233° |
| 2026-05-06 13:58 | 54.46300 | 9.94853 | 27899 ft | 432 kts | 233° |
| 2026-05-06 13:58 | 54.44547 | 9.90667 | 27898 ft | 432 kts | 233° |
| 2026-05-06 13:59 | 54.42793 | 9.86483 | 27895 ft | 432 kts | 233° |
| 2026-05-06 13:59 | 54.41038 | 9.82302 | 27893 ft | 432 kts | 233° |
| 2026-05-06 13:59 | 54.39280 | 9.78122 | 27877 ft | 432 kts | 233° |
| 2026-05-06 13:59 | 54.37521 | 9.73949 | 27878 ft | 432 kts | 232° |
| 2026-05-06 14:00 | 54.35762 | 9.69780 | 27868 ft | 432 kts | 233° |
| 2026-05-06 14:00 | 54.33991 | 9.65592 | 27873 ft | 434 kts | 233° |
| 2026-05-06 14:00 | 54.32220 | 9.61411 | 27884 ft | 434 kts | 232° |
| 2026-05-06 14:00 | 54.30448 | 9.57237 | 27879 ft | 433 kts | 232° |
| 2026-05-06 14:01 | 54.28676 | 9.53071 | 27879 ft | 433 kts | 232° |
| 2026-05-06 14:01 | 54.26904 | 9.48913 | 27877 ft | 433 kts | 232° |
| 2026-05-06 14:01 | 54.25129 | 9.44752 | 27876 ft | 433 kts | 232° |
| 2026-05-06 14:01 | 54.23354 | 9.40596 | 27876 ft | 433 kts | 232° |
| 2026-05-06 14:02 | 54.21576 | 9.36442 | 27865 ft | 433 kts | 232° |
| 2026-05-06 14:02 | 54.19799 | 9.32294 | 27864 ft | 433 kts | 232° |
| 2026-05-06 14:02 | 54.18020 | 9.28148 | 27864 ft | 433 kts | 232° |
| 2026-05-06 14:02 | 54.16238 | 9.24001 | 27863 ft | 433 kts | 232° |
| 2026-05-06 14:03 | 54.14458 | 9.19867 | 27859 ft | 433 kts | 232° |
| 2026-05-06 14:03 | 54.12666 | 9.15713 | 27861 ft | 435 kts | 232° |
| 2026-05-06 14:03 | 54.10869 | 9.11558 | 27865 ft | 436 kts | 232° |
| 2026-05-06 14:03 | 54.09066 | 9.07395 | 27863 ft | 436 kts | 232° |
| 2026-05-06 14:04 | 54.07268 | 9.03243 | 27865 ft | 436 kts | 232° |
| 2026-05-06 14:04 | 54.05466 | 8.99092 | 27876 ft | 436 kts | 232° |
| 2026-05-06 14:04 | 54.03667 | 8.94956 | 27870 ft | 434 kts | 232° |
| 2026-05-06 14:04 | 54.01869 | 8.90830 | 27869 ft | 434 kts | 232° |
| 2026-05-06 14:05 | 54.00094 | 8.86762 | 27873 ft | 434 kts | 232° |
| 2026-05-06 14:05 | 53.98292 | 8.82640 | 27874 ft | 434 kts | 232° |
| 2026-05-06 14:05 | 53.96492 | 8.78527 | 27873 ft | 434 kts | 232° |
| 2026-05-06 14:05 | 53.94690 | 8.74416 | 27874 ft | 434 kts | 232° |
| 2026-05-06 14:06 | 53.92885 | 8.70305 | 27867 ft | 434 kts | 232° |
| 2026-05-06 14:06 | 53.91074 | 8.66192 | 27872 ft | 435 kts | 232° |
| 2026-05-06 14:06 | 53.89256 | 8.62070 | 27874 ft | 436 kts | 232° |
| 2026-05-06 14:06 | 53.87435 | 8.57946 | 27875 ft | 437 kts | 232° |
| 2026-05-06 14:07 | 53.85611 | 8.53824 | 27876 ft | 436 kts | 232° |
| 2026-05-06 14:07 | 53.83795 | 8.49720 | 27875 ft | 436 kts | 232° |
| 2026-05-06 14:07 | 53.81968 | 8.45599 | 27875 ft | 437 kts | 232° |
| 2026-05-06 14:07 | 53.80142 | 8.41492 | 27872 ft | 436 kts | 232° |
| 2026-05-06 14:08 | 53.78321 | 8.37402 | 27881 ft | 436 kts | 232° |
| 2026-05-06 14:08 | 53.76497 | 8.33309 | 27877 ft | 436 kts | 232° |
| 2026-05-06 14:08 | 53.74671 | 8.29222 | 27870 ft | 435 kts | 232° |
| 2026-05-06 14:08 | 53.72845 | 8.25142 | 27867 ft | 435 kts | 232° |
| 2026-05-06 14:09 | 53.71021 | 8.21065 | 27866 ft | 436 kts | 232° |
| 2026-05-06 14:09 | 53.69183 | 8.16970 | 27875 ft | 438 kts | 232° |
| 2026-05-06 14:09 | 53.67346 | 8.12887 | 27882 ft | 438 kts | 232° |
| 2026-05-06 14:09 | 53.65503 | 8.08796 | 27886 ft | 439 kts | 232° |
| 2026-05-06 14:10 | 53.63657 | 8.04706 | 27893 ft | 438 kts | 232° |
| 2026-05-06 14:10 | 53.61818 | 8.00633 | 27889 ft | 438 kts | 232° |
| 2026-05-06 14:10 | 53.59972 | 7.96548 | 27885 ft | 439 kts | 232° |
| 2026-05-06 14:10 | 53.58122 | 7.92464 | 27889 ft | 439 kts | 232° |
| 2026-05-06 14:11 | 53.56280 | 7.88407 | 27896 ft | 437 kts | 232° |
| 2026-05-06 14:11 | 53.54428 | 7.84339 | 27904 ft | 439 kts | 232° |
| 2026-05-06 14:11 | 53.52577 | 7.80271 | 27909 ft | 438 kts | 231° |
| 2026-05-06 14:11 | 53.50730 | 7.76219 | 27913 ft | 436 kts | 232° |
| 2026-05-06 14:12 | 53.48891 | 7.72194 | 27905 ft | 436 kts | 232° |
| 2026-05-06 14:12 | 53.47040 | 7.68147 | 27906 ft | 437 kts | 231° |
| 2026-05-06 14:12 | 53.45192 | 7.64117 | 27905 ft | 436 kts | 231° |
| 2026-05-06 14:12 | 53.43340 | 7.60082 | 27878 ft | 437 kts | 232° |
| 2026-05-06 14:13 | 53.41484 | 7.56043 | 27879 ft | 436 kts | 231° |
| 2026-05-06 14:13 | 53.39637 | 7.52028 | 27878 ft | 435 kts | 231° |
| 2026-05-06 14:13 | 53.37782 | 7.48006 | 27901 ft | 437 kts | 231° |
| 2026-05-06 14:13 | 53.35924 | 7.43988 | 27907 ft | 437 kts | 231° |
| 2026-05-06 14:14 | 53.34064 | 7.39968 | 27906 ft | 436 kts | 231° |
| 2026-05-06 14:14 | 53.32208 | 7.35965 | 27897 ft | 433 kts | 231° |
| 2026-05-06 14:14 | 53.30371 | 7.32006 | 27899 ft | 432 kts | 231° |
| 2026-05-06 14:14 | 53.28516 | 7.28019 | 27906 ft | 435 kts | 231° |
| 2026-05-06 14:15 | 53.26653 | 7.24019 | 27907 ft | 436 kts | 231° |
| 2026-05-06 14:15 | 53.24786 | 7.20017 | 27908 ft | 436 kts | 231° |
| 2026-05-06 14:15 | 53.22925 | 7.16033 | 27915 ft | 434 kts | 231° |
| 2026-05-06 14:15 | 53.21089 | 7.12110 | 27899 ft | 435 kts | 231° |
| 2026-05-06 14:16 | 53.19224 | 7.08130 | 27896 ft | 435 kts | 231° |
| 2026-05-06 14:16 | 53.17361 | 7.04162 | 27900 ft | 433 kts | 230° |
| 2026-05-06 14:16 | 53.15503 | 7.00205 | 27900 ft | 432 kts | 231° |
| 2026-05-06 14:16 | 53.13654 | 6.96274 | 27905 ft | 433 kts | 230° |
| 2026-05-06 14:17 | 53.11787 | 6.92319 | 27908 ft | 434 kts | 230° |
| 2026-05-06 14:17 | 53.09918 | 6.88367 | 27902 ft | 435 kts | 230° |
| 2026-05-06 14:17 | 53.08046 | 6.84412 | 27901 ft | 435 kts | 231° |
| 2026-05-06 14:17 | 53.06184 | 6.80478 | 27786 ft | 426 kts | 230° |
| 2026-05-06 14:18 | 53.04372 | 6.76659 | 27187 ft | 417 kts | 231° |
| 2026-05-06 14:18 | 53.02590 | 6.72911 | 26504 ft | 411 kts | 231° |
| 2026-05-06 14:18 | 53.00829 | 6.69208 | 25866 ft | 406 kts | 231° |
| 2026-05-06 14:18 | 52.99088 | 6.65554 | 25263 ft | 401 kts | 231° |
| 2026-05-06 14:19 | 52.97368 | 6.61950 | 24690 ft | 396 kts | 232° |
| 2026-05-06 14:19 | 52.95666 | 6.58389 | 24126 ft | 391 kts | 231° |
| 2026-05-06 14:19 | 52.93986 | 6.54874 | 23523 ft | 387 kts | 232° |
| 2026-05-06 14:19 | 52.92321 | 6.51398 | 22879 ft | 383 kts | 232° |
| 2026-05-06 14:20 | 52.90668 | 6.47957 | 22293 ft | 381 kts | 232° |
| 2026-05-06 14:20 | 52.89028 | 6.44545 | 21707 ft | 376 kts | 232° |
| 2026-05-06 14:20 | 52.87413 | 6.41190 | 21137 ft | 370 kts | 232° |
| 2026-05-06 14:20 | 52.85817 | 6.37881 | 20598 ft | 365 kts | 231° |
| 2026-05-06 14:21 | 52.84243 | 6.34622 | 20077 ft | 361 kts | 232° |
| 2026-05-06 14:21 | 52.82757 | 6.31304 | 19585 ft | 356 kts | 235° |
| 2026-05-06 14:21 | 52.81347 | 6.27947 | 19091 ft | 356 kts | 235° |
| 2026-05-06 14:21 | 52.79934 | 6.24568 | 18612 ft | 358 kts | 235° |
| 2026-05-06 14:22 | 52.78522 | 6.21206 | 18144 ft | 356 kts | 235° |
| 2026-05-06 14:22 | 52.77114 | 6.17858 | 17628 ft | 353 kts | 235° |
| 2026-05-06 14:22 | 52.75716 | 6.14543 | 17136 ft | 351 kts | 235° |
| 2026-05-06 14:22 | 52.74325 | 6.11246 | 16630 ft | 350 kts | 235° |
| 2026-05-06 14:23 | 52.72940 | 6.07971 | 16153 ft | 347 kts | 236° |
| 2026-05-06 14:23 | 52.71566 | 6.04726 | 15703 ft | 343 kts | 236° |
| 2026-05-06 14:23 | 52.70201 | 6.01509 | 15248 ft | 341 kts | 236° |
| 2026-05-06 14:23 | 52.68845 | 5.98318 | 14800 ft | 339 kts | 236° |
| 2026-05-06 14:24 | 52.67495 | 5.95139 | 14354 ft | 337 kts | 236° |
| 2026-05-06 14:24 | 52.66170 | 5.92026 | 13910 ft | 334 kts | 237° |
| 2026-05-06 14:24 | 52.64824 | 5.88864 | 13422 ft | 333 kts | 237° |
| 2026-05-06 14:24 | 52.63516 | 5.85797 | 12963 ft | 332 kts | 236° |
| 2026-05-06 14:25 | 52.62192 | 5.82701 | 12518 ft | 329 kts | 236° |
| 2026-05-06 14:25 | 52.60872 | 5.79617 | 12087 ft | 329 kts | 236° |
| 2026-05-06 14:25 | 52.59557 | 5.76542 | 11644 ft | 327 kts | 236° |
| 2026-05-06 14:25 | 52.58248 | 5.73487 | 11212 ft | 326 kts | 236° |
| 2026-05-06 14:26 | 52.56967 | 5.70501 | 10894 ft | 313 kts | 235° |
| 2026-05-06 14:26 | 52.55743 | 5.67653 | 10684 ft | 297 kts | 235° |
| 2026-05-06 14:26 | 52.54577 | 5.64944 | 10481 ft | 285 kts | 236° |
| 2026-05-06 14:26 | 52.53455 | 5.62342 | 10292 ft | 274 kts | 235° |
| 2026-05-06 14:27 | 52.52371 | 5.59827 | 10111 ft | 268 kts | 235° |
| 2026-05-06 14:27 | 52.51314 | 5.57307 | 9939 ft | 268 kts | 239° |
| 2026-05-06 14:27 | 52.50545 | 5.54540 | 9746 ft | 267 kts | 251° |
| 2026-05-06 14:27 | 52.49937 | 5.51661 | 9593 ft | 267 kts | 252° |
| 2026-05-06 14:28 | 52.49338 | 5.48779 | 9459 ft | 267 kts | 251° |
| 2026-05-06 14:28 | 52.48709 | 5.45802 | 9331 ft | 287 kts | 252° |
| 2026-05-06 14:28 | 52.48058 | 5.42752 | 9230 ft | 277 kts | 252° |
| 2026-05-06 14:28 | 52.47427 | 5.39800 | 9104 ft | 282 kts | 251° |
| 2026-05-06 14:29 | 52.46766 | 5.36727 | 8999 ft | 284 kts | 251° |
| 2026-05-06 14:29 | 52.46111 | 5.33690 | 8884 ft | 283 kts | 251° |
| 2026-05-06 14:29 | 52.45445 | 5.30617 | 8766 ft | 288 kts | 251° |
| 2026-05-06 14:29 | 52.44771 | 5.27509 | 8648 ft | 290 kts | 251° |
| 2026-05-06 14:30 | 52.44098 | 5.24413 | 8528 ft | 290 kts | 252° |
| 2026-05-06 14:30 | 52.43425 | 5.21321 | 8394 ft | 287 kts | 251° |
| 2026-05-06 14:30 | 52.42753 | 5.18242 | 8275 ft | 288 kts | 251° |
| 2026-05-06 14:30 | 52.42075 | 5.15154 | 8160 ft | 288 kts | 251° |
| 2026-05-06 14:31 | 52.41394 | 5.12064 | 8044 ft | 290 kts | 251° |
| 2026-05-06 14:31 | 52.40718 | 5.08971 | 7922 ft | 287 kts | 251° |
| 2026-05-06 14:31 | 52.40047 | 5.05903 | 7796 ft | 288 kts | 252° |
| 2026-05-06 14:31 | 52.39386 | 5.02888 | 7689 ft | 285 kts | 251° |
| 2026-05-06 14:32 | 52.38715 | 4.99838 | 7577 ft | 287 kts | 252° |
| 2026-05-06 14:32 | 52.38039 | 4.96775 | 7456 ft | 285 kts | 252° |
| 2026-05-06 14:32 | 52.37364 | 4.93715 | 7331 ft | 287 kts | 252° |
| 2026-05-06 14:32 | 52.36688 | 4.90655 | 7215 ft | 284 kts | 251° |
| 2026-05-06 14:33 | 52.36016 | 4.87621 | 7105 ft | 286 kts | 251° |
| 2026-05-06 14:33 | 52.35348 | 4.84608 | 6983 ft | 281 kts | 251° |
| 2026-05-06 14:33 | 52.34674 | 4.81587 | 6889 ft | 284 kts | 251° |
| 2026-05-06 14:33 | 52.34011 | 4.78605 | 6869 ft | 269 kts | 251° |
| 2026-05-06 14:34 | 52.33436 | 4.75816 | 6864 ft | 251 kts | 259° |
| 2026-05-06 14:34 | 52.33397 | 4.73026 | 6749 ft | 243 kts | 283° |
| 2026-05-06 14:34 | 52.33772 | 4.70349 | 6436 ft | 239 kts | 285° |
| 2026-05-06 14:34 | 52.34172 | 4.67739 | 6044 ft | 235 kts | 289° |
| 2026-05-06 14:35 | 52.34521 | 4.65145 | 5691 ft | 232 kts | 278° |
| 2026-05-06 14:35 | 52.34336 | 4.62530 | 5363 ft | 237 kts | 248° |
| 2026-05-06 14:35 | 52.33509 | 4.60095 | 5166 ft | 245 kts | 237° |
| 2026-05-06 14:35 | 52.32583 | 4.57806 | 4900 ft | 238 kts | 237° |
| 2026-05-06 14:36 | 52.31680 | 4.55569 | 4588 ft | 234 kts | 236° |
| 2026-05-06 14:36 | 52.30801 | 4.53367 | 4299 ft | 230 kts | 237° |
| 2026-05-06 14:36 | 52.29928 | 4.51156 | 4016 ft | 230 kts | 237° |
| 2026-05-06 14:36 | 52.29068 | 4.48957 | 3725 ft | 230 kts | 238° |
| 2026-05-06 14:37 | 52.28214 | 4.46768 | 3468 ft | 229 kts | 238° |
| 2026-05-06 14:37 | 52.27336 | 4.44615 | 3217 ft | 227 kts | 230° |
| 2026-05-06 14:37 | 52.26073 | 4.43159 | 3003 ft | 222 kts | 192° |
| 2026-05-06 14:37 | 52.24609 | 4.43241 | 2773 ft | 213 kts | 152° |
| 2026-05-06 14:38 | 52.23346 | 4.44475 | 2534 ft | 208 kts | 139° |
| 2026-05-06 14:38 | 52.22201 | 4.45861 | 2284 ft | 206 kts | 134° |
| 2026-05-06 14:38 | 52.21360 | 4.47738 | 2103 ft | 212 kts | 107° |
| 2026-05-06 14:38 | 52.20921 | 4.50031 | 1989 ft | 214 kts | 100° |
| 2026-05-06 14:39 | 52.20801 | 4.52281 | 1949 ft | 189 kts | 74° |
| 2026-05-06 14:39 | 52.21273 | 4.54178 | 1962 ft | 176 kts | 57° |
| 2026-05-06 14:39 | 52.21970 | 4.55777 | 2021 ft | 171 kts | 55° |
| 2026-05-06 14:39 | 52.22614 | 4.57409 | 2015 ft | 170 kts | 55° |
| 2026-05-06 14:40 | 52.23230 | 4.58996 | 1995 ft | 161 kts | 55° |
| 2026-05-06 14:40 | 52.23792 | 4.60453 | 1903 ft | 142 kts | 56° |
| 2026-05-06 14:40 | 52.24300 | 4.61767 | 1712 ft | 135 kts | 55° |
| 2026-05-06 14:40 | 52.24800 | 4.63064 | 1531 ft | 135 kts | 56° |
| 2026-05-06 14:41 | 52.25299 | 4.64358 | 1350 ft | 135 kts | 55° |
| 2026-05-06 14:41 | 52.25795 | 4.65648 | 1172 ft | 133 kts | 54° |
| 2026-05-06 14:41 | 52.26292 | 4.66937 | 986 ft | 135 kts | 55° |
| 2026-05-06 14:41 | 52.26792 | 4.68227 | 769 ft | 135 kts | 55° |
| 2026-05-06 14:42 | 52.27289 | 4.69524 | 607 ft | 133 kts | 55° |
| 2026-05-06 14:42 | 52.27622 | 4.70369 | 494 ft | 134 kts | 57° |
| 2026-05-06 14:42 | 52.28109 | 4.71666 | 356 ft | 131 kts | 55° |
| 2026-05-06 14:42 | 52.28604 | 4.72923 | 151 ft | 135 kts | 58° |
| 2026-05-06 14:43 | 52.29096 | 4.74205 | 11 ft | 131 kts | 58° |
| 2026-05-06 14:43 | 52.29516 | 4.75300 | 3 ft | 91 kts | 58° |
| 2026-05-06 14:43 | 52.29783 | 4.75996 | 2 ft | 55 kts | 57° |
| 2026-05-06 14:43 | 52.29940 | 4.76407 | 2 ft | 27 kts | 59° |
| 2026-05-06 14:44 | 52.30046 | 4.76557 | 4 ft | 22 kts | 24° |
| 2026-05-06 14:44 | 52.30155 | 4.76648 | 4 ft | 13 kts | 29° |
| 2026-05-06 14:44 | 52.30239 | 4.76723 | 4 ft | 14 kts | 28° |
| 2026-05-06 14:45 | 52.30370 | 4.76973 | 4 ft | 11 kts | 57° |
| 2026-05-06 14:45 | 52.30439 | 4.77034 | 4 ft | 14 kts | 343° |
| 2026-05-06 14:45 | 52.30505 | 4.76973 | 4 ft | 11 kts | 329° |
| 2026-05-06 14:45 | 52.30570 | 4.76907 | 4 ft | 11 kts | 326° |
| 2026-05-06 14:46 | 52.30621 | 4.76793 | 4 ft | 11 kts | 314° |
| 2026-05-06 14:46 | 52.30673 | 4.76736 | 4 ft | 7 kts | 329° |
| 2026-05-06 14:46 | 52.30686 | 4.76671 | 4 ft | 8 kts | 246° |
| 2026-05-06 14:46 | 52.30672 | 4.76612 | 4 ft | 2 kts | 249° |
| 2026-05-06 14:47 | 52.30667 | 4.76593 | 4 ft | 0 kts | 248° |